Time;durP1;ratioP1;P1;durP2;ratioP2;P2;SDS_P1;SDS_P2;PMS_P1;PMS_P2;Temp;Humidity;BMP_temperature;BMP_pressure;BME280_temperature;BME280_humidity;BME280_pressure;Samples;Min_cycle;Max_cycle;Signal;HPM_P1;HPM_P2
2022/09/25 00:01:47;;;;;;;6.03;3.27;;;;;;;6.71;100.00;99541.09;1686955;84;21097;-69
2022/09/25 00:04:14;;;;;;;9.05;4.20;;;;;;;6.71;100.00;99544.63;1724966;82;21053;-69
2022/09/25 00:06:40;;;;;;;;;;;;;;;6.67;100.00;99549.42;1728827;82;21677;-68
2022/09/25 00:09:07;;;;;;;4.97;2.58;;;;;;;6.61;100.00;99542.32;1733014;82;20168;-69
2022/09/25 00:11:37;;;;;;;3.85;2.33;;;;;;;6.53;100.00;99540.86;1717155;82;21058;-68
2022/09/25 00:14:03;;;;;;;4.30;3.00;;;;;;;6.47;100.00;99544.58;1719884;82;21474;-69
2022/09/25 00:16:31;;;;;;;7.70;3.17;;;;;;;6.35;100.00;99544.67;1712313;82;21534;-69
2022/09/25 00:21:43;;;;;;;5.28;3.35;;;;;;;6.26;100.00;99534.02;1729525;82;21521;-68
2022/09/25 00:24:10;;;;;;;6.00;3.72;;;;;;;6.25;100.00;99533.72;1727817;81;21067;-68
2022/09/25 00:26:40;;;;;;;9.08;4.00;;;;;;;6.26;100.00;99544.00;1714329;82;21668;-68
2022/09/25 00:29:07;;;;;;;10.63;4.65;;;;;;;6.20;100.00;99535.55;1717934;82;21585;-69
2022/09/25 00:31:34;;;;;;;5.90;4.05;;;;;;;6.18;100.00;99537.66;1716719;82;21091;-69
2022/09/25 00:34:03;;;;;;;7.30;4.47;;;;;;;6.16;100.00;99539.80;1712177;82;21063;-69
2022/09/25 00:36:29;;;;;;;6.35;3.95;;;;;;;6.16;100.00;99538.45;1655862;86;22184;-69
2022/09/25 00:38:57;;;;;;;9.20;4.90;;;;;;;6.12;100.00;99534.08;1722890;82;21601;-69
2022/09/25 00:41:25;;;;;;;6.35;4.80;;;;;;;6.06;100.00;99536.95;1725063;82;21150;-69
2022/09/25 00:43:55;;;;;;;8.05;4.70;;;;;;;6.06;100.00;99536.95;1710728;82;21127;-69
2022/09/25 00:46:33;;;;;;;8.10;4.75;;;;;;;6.08;100.00;99532.92;1723493;82;21098;-69
2022/09/25 00:49:05;;;;;;;7.47;5.35;;;;;;;6.09;100.00;99537.28;1718317;82;21028;-69
2022/09/25 00:51:55;;;;;;;9.90;5.53;;;;;;;6.08;100.00;99537.51;1729471;82;21169;-69
2022/09/25 00:54:29;;;;;;;9.58;5.10;;;;;;;6.03;100.00;99542.82;1723465;82;21075;-69
2022/09/25 00:56:55;;;;;;;9.10;4.78;;;;;;;6.00;100.00;99544.14;1718598;82;21050;-69
2022/09/25 00:59:25;;;;;;;;;;;;;;;6.01;100.00;99547.14;1716489;82;21661;-69
2022/09/25 01:01:52;;;;;;;6.17;3.98;;;;;;;5.98;100.00;99539.00;1711834;82;20452;-69
2022/09/25 01:04:21;;;;;;;6.65;4.00;;;;;;;5.88;100.00;99542.08;1718680;82;21034;-69
2022/09/25 01:06:48;;;;;;;7.20;3.58;;;;;;;5.84;100.00;99538.19;1729920;82;21129;-69
2022/09/25 01:09:15;;;;;;;6.00;3.58;;;;;;;5.86;100.00;99538.78;1715986;82;21075;-69
2022/09/25 01:11:44;;;;;;;6.60;3.40;;;;;;;5.84;100.00;99543.07;1728879;82;21047;-68
2022/09/25 01:14:10;;;;;;;5.53;3.40;;;;;;;5.81;100.00;99540.83;1715274;82;21058;-68
2022/09/25 01:17:03;;;;;;;6.95;4.08;;;;;;;5.72;100.00;99537.44;1705606;82;21115;-69
2022/09/25 01:19:58;;;;;;;5.10;3.60;;;;;;;5.69;100.00;99537.41;1710614;82;21614;-69
2022/09/25 01:23:08;;;;;;;5.15;3.37;;;;;;;5.68;100.00;99538.46;1730233;82;21039;-69
2022/09/25 01:26:18;;;;;;;6.33;3.77;;;;;;;5.68;100.00;99540.34;1711954;81;21162;-69
2022/09/25 01:28:57;;;;;;;;;;;;;;;5.66;100.00;99533.03;1718344;81;21055;-69
2022/09/25 01:31:49;;;;;;;8.85;4.00;;;;;;;5.59;100.00;99539.94;1711893;82;20129;-69
2022/09/25 01:34:36;;;;;;;5.78;3.60;;;;;;;5.58;100.00;99542.88;1723922;82;22213;-69
2022/09/25 01:37:29;;;;;;;6.65;3.60;;;;;;;5.59;100.00;99537.24;1707950;82;21458;-69
2022/09/25 01:40:14;;;;;;;5.70;3.92;;;;;;;5.61;100.00;99534.28;1711028;82;21067;-69
2022/09/25 01:42:51;;;;;;;6.30;3.50;;;;;;;5.56;100.00;99531.51;1724352;82;21027;-69
2022/09/25 01:45:22;;;;;;;8.13;3.67;;;;;;;5.54;100.00;99531.74;1722073;82;21125;-69
2022/09/25 01:47:50;;;;;;;6.90;3.87;;;;;;;5.58;100.00;99536.13;1724848;82;21515;-69
2022/09/25 01:50:22;;;;;;;6.47;3.50;;;;;;;5.60;100.00;99532.66;1710737;82;21051;-69
2022/09/25 01:52:51;;;;;;;7.22;3.72;;;;;;;5.61;100.00;99535.63;1713624;82;21115;-68
2022/09/25 01:55:37;;;;;;;6.62;4.30;;;;;;;5.61;100.00;99543.20;1714601;82;21075;-69
2022/09/25 01:58:17;;;;;;;7.45;4.15;;;;;;;5.57;100.00;99541.22;1725709;82;20960;-69
2022/09/25 02:00:49;;;;;;;6.83;4.08;;;;;;;5.57;100.00;99537.17;1714526;82;21570;-69
2022/09/25 02:03:21;;;;;;;6.97;4.30;;;;;;;5.59;100.00;99533.72;1726041;82;20969;-69
2022/09/25 02:05:51;;;;;;;7.20;4.45;;;;;;;5.62;100.00;99544.03;1714877;82;21123;-69
2022/09/25 02:08:24;;;;;;;8.70;4.12;;;;;;;5.57;100.00;99538.00;1718478;82;20964;-69
2022/09/25 02:10:55;;;;;;;5.97;3.98;;;;;;;5.60;100.00;99542.11;1714937;82;21126;-69
2022/09/25 02:13:24;;;;;;;6.22;3.85;;;;;;;5.62;100.00;99546.20;1712992;82;21047;-69
2022/09/25 02:15:56;;;;;;;7.10;4.33;;;;;;;5.64;100.00;99541.89;1701348;82;21080;-69
2022/09/25 02:21:34;;;;;;;5.17;3.77;;;;;;;5.55;100.00;99542.02;1722288;82;21123;-69
2022/09/25 02:24:24;;;;;;;5.45;3.98;;;;;;;5.56;100.00;99536.38;1704752;82;21011;-69
2022/09/25 02:26:50;;;;;;;8.55;4.40;;;;;;;5.56;100.00;99543.13;1713430;82;21138;-69
2022/09/25 02:29:18;;;;;;;8.70;4.37;;;;;;;5.51;100.00;99542.50;1730114;82;21047;-69
2022/09/25 02:31:58;;;;;;;6.20;4.12;;;;;;;5.54;100.00;99543.89;1719414;82;21119;-69
2022/09/25 02:34:26;;;;;;;8.63;4.12;;;;;;;5.56;100.00;99539.08;1728701;82;21118;-68
2022/09/25 02:36:52;;;;;;;;;;;;;;;5.56;100.00;99540.96;1717683;82;21620;-69
2022/09/25 02:39:21;;;;;;;6.35;4.30;;;;;;;5.54;100.00;99539.84;1710488;82;20468;-69
2022/09/25 02:42:06;;;;;;;6.85;4.00;;;;;;;5.42;100.00;99541.80;1719439;82;21915;-69
2022/09/25 02:45:03;;;;;;;6.30;3.98;;;;;;;5.44;100.00;99538.31;1708421;82;21415;-68
2022/09/25 02:48:03;;;;;;;7.10;3.72;;;;;;;5.47;100.00;99540.53;1724540;82;21035;-68
2022/09/25 02:50:56;;;;;;;6.12;3.75;;;;;;;5.49;100.00;99537.86;1717585;82;21801;-68
2022/09/25 02:53:34;;;;;;;6.22;3.55;;;;;;;5.46;100.00;99533.48;1711836;82;21008;-68
2022/09/25 02:56:22;;;;;;;5.37;3.30;;;;;;;5.46;100.00;99541.58;1727264;82;21414;-68
2022/09/25 02:58:51;;;;;;;5.40;3.30;;;;;;;5.49;100.00;99535.72;1716720;82;20992;-68
2022/09/25 03:01:19;;;;;;;9.00;3.33;;;;;;;5.51;100.00;99533.05;1709123;82;21460;-68
2022/09/25 03:03:46;;;;;;;4.95;3.20;;;;;;;5.53;100.00;99537.41;1719193;82;21001;-68
2022/09/25 03:06:13;;;;;;;4.92;3.67;;;;;;;5.53;100.00;99538.75;1710403;82;21119;-68
2022/09/25 03:08:50;;;;;;;4.60;3.45;;;;;;;5.54;100.00;99538.49;1715496;82;22130;-69
2022/09/25 03:11:18;;;;;;;6.72;3.70;;;;;;;5.59;100.00;99537.77;1716508;82;21110;-68
2022/09/25 03:13:45;;;;;;;5.65;3.72;;;;;;;5.59;100.00;99530.49;1712001;82;21019;-68
2022/09/25 03:16:40;;;;;;;6.95;3.58;;;;;;;5.55;100.00;99533.39;1708196;82;21178;-68
2022/09/25 03:19:07;;;;;;;4.85;3.30;;;;;;;5.56;100.00;99535.56;1716353;82;21082;-68
2022/09/25 03:21:34;;;;;;;9.35;4.08;;;;;;;5.56;100.00;99532.86;1713434;82;21581;-68
2022/09/25 03:24:00;;;;;;;8.23;3.80;;;;;;;5.56;100.00;99536.91;1710590;82;21009;-68
2022/09/25 03:26:27;;;;;;;7.12;4.08;;;;;;;5.51;100.00;99530.36;1720633;82;21648;-67
2022/09/25 03:28:53;;;;;;;6.03;3.77;;;;;;;5.49;100.00;99538.42;1729271;82;20971;-68
2022/09/25 03:31:19;;;;;;;7.45;3.60;;;;;;;5.52;100.00;99539.28;1725413;82;21046;-68
2022/09/25 03:33:48;;;;;;;6.08;3.60;;;;;;;5.52;100.00;99540.62;1742758;82;21573;-68
2022/09/25 03:36:17;;;;;;;6.33;3.92;;;;;;;5.51;100.00;99541.16;1729031;82;21633;-68
2022/09/25 03:38:49;;;;;;;7.17;3.90;;;;;;;5.47;100.00;99547.27;1722178;82;21885;-68
2022/09/25 03:41:20;;;;;;;7.17;3.90;;;;;;;5.46;100.00;99557.25;1728393;82;21039;-68
2022/09/25 03:43:50;;;;;;;8.38;3.60;;;;;;;5.48;100.00;99548.92;1723739;82;21019;-69
2022/09/25 03:46:19;;;;;;;5.67;3.95;;;;;;;5.49;100.00;99550.57;1724208;82;21043;-69
2022/09/25 03:48:45;;;;;;;6.10;4.03;;;;;;;5.46;100.00;99553.20;1747246;80;20972;-69
2022/09/25 03:51:12;;;;;;;;;;;;;;;5.42;100.00;99555.30;1737503;82;21374;-69
2022/09/25 03:53:38;;;;;;;5.17;3.55;;;;;;;5.43;100.00;99561.79;1722584;82;20156;-69
2022/09/25 03:56:09;;;;;;;6.33;3.50;;;;;;;5.42;100.00;99562.05;1728566;82;21138;-69
2022/09/25 03:58:36;;;;;;;6.15;3.80;;;;;;;5.42;100.00;99568.24;1727351;82;21062;-70
2022/09/25 04:01:03;;;;;;;5.30;3.70;;;;;;;5.38;100.00;99564.94;1723665;82;21078;-69
2022/09/25 04:03:30;;;;;;;5.60;3.50;;;;;;;5.35;100.00;99567.57;1723144;82;21066;-69
2022/09/25 04:06:03;;;;;;;5.80;3.67;;;;;;;5.38;100.00;99571.69;1726962;82;21082;-69
2022/09/25 04:08:31;;;;;;;5.53;3.60;;;;;;;5.38;100.00;99573.86;1727947;81;21546;-68
2022/09/25 04:10:59;;;;;;;6.15;3.37;;;;;;;5.36;100.00;99570.57;1721446;82;21644;-70
2022/09/25 04:13:28;;;;;;;5.87;3.10;;;;;;;5.36;100.00;99569.75;1725389;82;21038;-69
2022/09/25 04:15:56;;;;;;;4.60;3.10;;;;;;;5.39;100.00;99564.69;1721233;82;22327;-67
2022/09/25 04:18:24;;;;;;;4.95;3.58;;;;;;;5.41;100.00;99564.45;1728243;82;21031;-66
2022/09/25 04:20:50;;;;;;;4.75;3.27;;;;;;;5.38;100.00;99562.24;1748259;82;21031;-65
2022/09/25 04:23:17;;;;;;;5.65;3.60;;;;;;;5.37;100.00;99561.95;1740570;82;21031;-66
2022/09/25 04:25:44;;;;;;;4.45;3.22;;;;;;;5.42;100.00;99566.89;1733324;82;21070;-67
2022/09/25 04:28:11;;;;;;;7.55;3.47;;;;;;;5.47;100.00;99570.22;1726877;82;21004;-66
2022/09/25 04:30:37;;;;;;;8.00;3.67;;;;;;;5.46;100.00;99565.87;1717162;82;21087;-67
2022/09/25 04:35:49;;;;;;;4.58;2.85;;;;;;;5.46;100.00;99582.90;1721383;82;20625;-66
2022/09/25 04:39:46;;;;;;;5.78;2.83;;;;;;;5.53;100.00;99570.06;1805488;78;22827;-69
2022/09/25 04:42:12;;;;;;;4.62;3.25;;;;;;;5.49;100.00;99577.56;1728827;81;21019;-69
2022/09/25 04:44:39;;;;;;;7.00;3.75;;;;;;;5.50;100.00;99584.06;1727154;82;21121;-69
2022/09/25 04:47:05;;;;;;;5.87;3.55;;;;;;;5.59;100.00;99587.72;1727454;82;21094;-69
2022/09/25 04:49:32;;;;;;;;;;;;;;;5.68;100.00;99586.25;1732902;82;21573;-69
2022/09/25 04:51:58;;;;;;;6.92;3.33;;;;;;;5.74;100.00;99593.41;1724320;81;20554;-69
2022/09/25 04:54:25;;;;;;;6.10;3.40;;;;;;;5.72;100.00;99596.86;1722436;82;21049;-69
2022/09/25 04:56:53;;;;;;;7.28;3.98;;;;;;;5.83;100.00;99588.70;1728242;82;21104;-68
2022/09/25 04:59:20;;;;;;;9.75;3.77;;;;;;;5.97;100.00;99593.27;1740874;81;21038;-69
2022/09/25 05:01:47;;;;;;;6.35;3.83;;;;;;;6.09;100.00;99593.20;1727279;81;21073;-69
2022/09/25 05:04:15;;;;;;;6.30;3.87;;;;;;;6.28;100.00;99594.57;1735824;82;21061;-69
2022/09/25 05:06:41;;;;;;;8.25;4.05;;;;;;;6.56;100.00;99586.86;1721940;82;21085;-69
2022/09/25 05:09:08;;;;;;;9.08;4.03;;;;;;;6.82;100.00;99593.73;1730730;81;21097;-70
2022/09/25 05:11:35;;;;;;;7.85;4.17;;;;;;;7.06;100.00;99596.19;1694868;83;21551;-68
2022/09/25 05:14:02;;;;;;;5.15;3.75;;;;;;;7.34;100.00;99597.33;1684926;84;21529;-69
2022/09/25 05:16:29;;;;;;;5.17;3.70;;;;;;;7.64;100.00;99596.84;1673473;85;21117;-69
2022/09/25 05:18:58;;;;;;;7.62;4.22;;;;;;;7.88;100.00;99603.58;1682160;84;21152;-69
2022/09/25 05:21:24;;;;;;;6.58;4.22;;;;;;;8.08;100.00;99601.03;1679673;84;21165;-69
2022/09/25 05:23:51;;;;;;;5.87;3.55;;;;;;;8.35;100.00;99607.27;1675059;84;21398;-70
2022/09/25 05:26:17;;;;;;;5.53;3.33;;;;;;;8.65;100.00;99596.31;1684093;85;21092;-70
2022/09/25 05:28:43;;;;;;;5.65;3.47;;;;;;;8.81;100.00;99613.80;1684072;85;21024;-69
2022/09/25 05:31:10;;;;;;;5.70;3.60;;;;;;;8.91;100.00;99600.81;1674047;83;21037;-69
2022/09/25 05:33:37;;;;;;;6.42;3.65;;;;;;;9.11;100.00;99604.15;1691913;83;21547;-69
2022/09/25 05:36:05;;;;;;;5.83;3.42;;;;;;;9.35;100.00;99604.78;1687860;83;21533;-69
2022/09/25 05:38:34;;;;;;;4.87;3.42;;;;;;;9.56;100.00;99595.36;1692175;84;21039;-69
2022/09/25 05:41:03;;;;;;;7.28;3.40;;;;;;;9.78;100.00;99594.02;1686215;84;21118;-69
2022/09/25 05:43:31;;;;;;;6.03;3.42;;;;;;;9.92;100.00;99600.56;1684529;84;21631;-69
2022/09/25 05:45:58;;;;;;;4.72;3.42;;;;;;;10.14;100.00;99596.25;1685342;85;21132;-69
2022/09/25 05:48:25;;;;;;;7.00;3.50;;;;;;;10.39;100.00;99599.51;1685375;84;21108;-69
2022/09/25 05:50:55;;;;;;;5.03;3.47;;;;;;;10.61;100.00;99593.77;1686563;84;21127;-69
2022/09/25 05:53:22;;;;;;;6.97;3.77;;;;;;;10.76;100.00;99594.56;1682767;84;21493;-69
2022/09/25 05:55:53;;;;;;;5.97;3.80;;;;;;;10.86;100.00;99601.88;1676806;84;21076;-69
2022/09/25 05:58:20;;;;;;;5.53;3.92;;;;;;;11.06;100.00;99596.89;1661119;86;21720;-69
2022/09/25 06:00:47;;;;;;;7.25;4.10;;;;;;;11.21;100.00;99599.03;1665604;84;21619;-69
2022/09/25 06:03:13;;;;;;;7.12;4.62;;;;;;;11.40;100.00;99600.59;1670864;84;21113;-69
2022/09/25 06:05:40;;;;;;;6.90;4.28;;;;;;;11.55;100.00;99601.84;1664349;86;21637;-69
2022/09/25 06:08:08;;;;;;;6.15;3.77;;;;;;;11.74;100.00;99596.59;1664513;86;21086;-70
2022/09/25 06:10:36;;;;;;;5.70;3.75;;;;;;;11.97;100.00;99606.81;1672588;84;21113;-70
2022/09/25 06:13:03;;;;;;;5.17;3.92;;;;;;;12.17;100.00;99601.19;1687932;84;21059;-69
2022/09/25 06:15:37;;;;;;;5.47;3.75;;;;;;;12.39;100.00;99606.20;1721363;83;21540;-69
2022/09/25 06:18:04;;;;;;;5.45;3.55;;;;;;;12.49;100.00;99602.00;1721221;83;21081;-69
2022/09/25 06:20:31;;;;;;;6.53;4.10;;;;;;;12.57;100.00;99599.20;1721195;82;21173;-69
2022/09/25 06:22:58;;;;;;;5.00;3.90;;;;;;;12.75;100.00;99601.21;1714540;82;21865;-69
2022/09/25 06:25:27;;;;;;;6.37;3.70;;;;;;;12.85;100.00;99601.92;1719296;82;21086;-69
2022/09/25 06:27:54;;;;;;;6.22;4.30;;;;;;;12.86;100.00;99607.63;1714345;84;20994;-69
2022/09/25 06:30:22;;;;;;;7.08;4.35;;;;;;;12.92;100.00;99605.66;1687462;84;21042;-69
2022/09/25 06:32:49;;;;;;;5.45;3.98;;;;;;;12.90;100.00;99603.21;1717670;82;21474;-69
2022/09/25 06:35:16;;;;;;;5.12;3.90;;;;;;;12.94;100.00;99602.89;1667060;84;21014;-69
2022/09/25 06:37:42;;;;;;;6.15;3.70;;;;;;;12.93;100.00;99601.84;1714549;84;21450;-68
2022/09/25 06:40:10;;;;;;;6.33;3.72;;;;;;;12.97;100.00;99606.95;1704313;82;21027;-67
2022/09/25 06:42:36;;;;;;;5.28;3.90;;;;;;;12.93;100.00;99594.43;1710496;82;20955;-67
2022/09/25 06:45:03;;;;;;;;;;;;;;;12.97;100.00;99606.95;1715924;82;21094;-67
2022/09/25 06:47:30;;;;;;;7.78;4.28;;;;;;;13.09;100.00;99599.73;1711197;84;20107;-67
2022/09/25 06:49:57;;;;;;;;;;;;;;;13.09;100.00;99606.05;1712499;82;21059;-68
2022/09/25 06:52:23;;;;;;;5.75;4.17;;;;;;;13.24;100.00;99598.22;1710629;82;20443;-67
2022/09/25 06:54:50;;;;;;;6.55;3.92;;;;;;;13.26;100.00;99603.64;1717633;82;21529;-66
2022/09/25 06:57:17;;;;;;;8.20;4.20;;;;;;;13.30;100.00;99599.22;1715927;83;21059;-68
2022/09/25 06:59:43;;;;;;;;;;;;;;;13.41;100.00;99597.98;1712197;82;21051;-67
2022/09/25 07:04:54;;;;;;;6.20;4.25;;;;;;;13.66;100.00;99592.73;1718246;82;21388;-67
2022/09/25 07:07:20;;;;;;;;;;;;;;;13.85;100.00;99594.89;1693537;82;20987;-67
2022/09/25 07:09:47;;;;;;;6.42;4.00;;;;;;;13.90;100.00;99592.09;1719151;82;20148;-67
2022/09/25 07:12:16;;;;;;;18.00;13.25;;;;;;;13.89;100.00;99588.27;1711904;82;21063;-67
2022/09/25 07:14:45;;;;;;;8.63;6.47;;;;;;;13.96;100.00;99577.76;1712549;82;21066;-72
2022/09/25 07:17:13;;;;;;;6.67;3.42;;;;;;;13.99;100.00;99581.30;1692847;82;21062;-67
2022/09/25 07:19:40;;;;;;;21.40;13.03;;;;;;;13.89;100.00;99586.90;1713856;82;21106;-66
2022/09/25 07:22:06;;;;;;;;;;;;;;;13.90;100.00;99588.53;1714222;82;21031;-68
2022/09/25 07:24:33;;;;;;;23.80;15.68;;;;;;;14.07;100.00;99594.83;1714195;81;20488;-67
2022/09/25 07:26:59;;;;;;;17.67;12.00;;;;;;;14.12;100.00;99590.66;1715815;82;21064;-67
2022/09/25 07:29:25;;;;;;;;;;;;;;;14.35;100.00;99586.45;1721800;82;21078;-68
2022/09/25 07:31:51;;;;;;;9.50;6.15;;;;;;;14.60;100.00;99592.05;1719412;82;20181;-67
2022/09/25 07:34:18;;;;;;;4.62;3.35;;;;;;;14.72;100.00;99585.53;1717382;82;22235;-67
2022/09/25 07:36:46;;;;;;;4.20;2.90;;;;;;;14.90;100.00;99592.05;1714750;82;21851;-67
2022/09/25 07:39:12;;;;;;;4.03;3.05;;;;;;;14.87;100.00;99572.09;1710517;82;21039;-67
2022/09/25 07:41:39;;;;;;;3.85;2.60;;;;;;;14.89;100.00;99572.59;1679646;84;21068;-71
2022/09/25 07:44:05;;;;;;;4.42;2.75;;;;;;;14.86;100.00;99575.39;1711827;82;21071;-67
2022/09/25 07:46:31;;;;;;;;;;;;;;;14.79;100.00;99569.50;1713399;82;22262;-71
2022/09/25 07:48:59;;;;;;;4.92;3.37;;;;;;;14.84;100.00;99565.86;1710213;82;20160;-68
2022/09/25 07:51:25;;;;;;;5.00;3.00;;;;;;;14.87;100.00;99573.47;1719346;82;21132;-69
2022/09/25 07:53:53;;;;;;;6.37;2.77;;;;;;;14.90;100.00;99570.94;1713022;82;21071;-69
2022/09/25 07:56:20;;;;;;;4.47;2.47;;;;;;;14.88;100.00;99569.59;1718962;82;21098;-71
2022/09/25 07:58:46;;;;;;;3.52;2.58;;;;;;;14.77;100.00;99572.30;1710174;82;21114;-69
2022/09/25 08:01:13;;;;;;;3.47;2.70;;;;;;;14.80;100.00;99573.06;1715435;82;21653;-72
2022/09/25 08:03:39;;;;;;;5.62;2.65;;;;;;;14.95;100.00;99580.41;1719531;82;21590;-71
2022/09/25 08:06:12;;;;;;;3.75;2.42;;;;;;;15.09;100.00;99564.55;1719970;81;21151;-71
2022/09/25 08:08:43;;;;;;;3.37;2.30;;;;;;;15.19;100.00;99578.86;1716091;82;21066;-69
2022/09/25 08:11:12;;;;;;;3.55;2.10;;;;;;;15.27;100.00;99575.38;1715871;82;21091;-69
2022/09/25 08:13:39;;;;;;;3.55;2.45;;;;;;;15.39;100.00;99570.19;1715291;82;21001;-69
2022/09/25 08:16:14;;;;;;;3.72;2.30;;;;;;;15.60;100.00;99566.47;1709790;82;21130;-69
2022/09/25 08:18:44;;;;;;;2.72;1.75;;;;;;;15.70;100.00;99562.67;1720037;82;21039;-69
2022/09/25 08:21:13;;;;;;;3.37;1.82;;;;;;;15.79;100.00;99569.88;1734319;81;21106;-67
2022/09/25 08:23:41;;;;;;;3.50;1.80;;;;;;;15.89;100.00;99567.45;1711857;82;21143;-68
2022/09/25 08:26:09;;;;;;;4.08;1.95;;;;;;;15.96;100.00;99564.27;1718307;82;21493;-68
2022/09/25 08:28:36;;;;;;;3.58;2.00;;;;;;;15.97;100.00;99552.17;1734277;82;20987;-72
2022/09/25 08:31:03;;;;;;;3.02;1.90;;;;;;;15.95;100.00;99559.33;1723407;82;21075;-72
2022/09/25 08:33:33;;;;;;;3.08;1.90;;;;;;;16.11;100.00;99557.04;1723859;82;21038;-69
2022/09/25 08:36:01;;;;;;;3.35;1.95;;;;;;;16.17;100.00;99553.85;1712346;82;21078;-67
2022/09/25 08:38:31;;;;;;;2.40;1.55;;;;;;;16.27;100.00;99551.40;1720987;82;21015;-70
2022/09/25 08:41:15;;;;;;;2.83;2.02;;;;;;;16.47;100.00;99544.03;1728294;81;21074;-68
2022/09/25 08:43:59;;;;;;;2.80;1.72;;;;;;;16.66;100.00;99544.63;1710482;82;21006;-69
2022/09/25 08:49:28;;;;;;;3.50;1.52;;;;;;;16.81;100.00;99540.66;1712421;82;21493;-68
2022/09/25 08:52:02;;;;;;;3.42;1.75;;;;;;;16.88;100.00;99538.25;1720490;82;21064;-68
2022/09/25 08:54:30;;;;;;;2.20;1.40;;;;;;;16.99;100.00;99533.27;1714381;82;21690;-69
2022/09/25 08:57:19;;;;;;;2.37;1.50;;;;;;;16.91;100.00;99537.61;1717940;82;21106;-72
2022/09/25 08:59:48;;;;;;;2.72;1.70;;;;;;;16.82;100.00;99539.53;1717293;82;21078;-72
2022/09/25 09:02:19;;;;;;;2.02;1.30;;;;;;;16.67;100.00;99542.69;1710723;82;21495;-71
2022/09/25 09:04:54;;;;;;;2.12;1.30;;;;;;;16.73;100.00;99533.98;1681164;84;22177;-70
2022/09/25 09:07:38;;;;;;;1.52;1.10;;;;;;;16.85;100.00;99531.46;1721805;82;20988;-69
2022/09/25 09:10:19;;;;;;;3.05;1.30;;;;;;;16.85;100.00;99531.46;1729719;82;21051;-68
2022/09/25 09:12:50;;;;;;;3.02;1.32;;;;;;;16.81;100.00;99519.47;1719921;82;21412;-70
2022/09/25 09:15:36;;;;;;;1.82;1.20;;;;;;;16.88;100.00;99523.95;1715791;82;21114;-70
2022/09/25 09:18:22;;;;;;;3.10;1.10;;;;;;;16.98;100.00;99522.84;1711305;83;21083;-69
2022/09/25 09:20:55;;;;;;;1.50;1.00;;;;;;;16.97;100.00;99521.20;1714367;82;21118;-69
2022/09/25 09:23:39;;;;;;;2.08;1.20;;;;;;;16.87;100.00;99515.44;1710168;82;21114;-68
2022/09/25 09:26:19;;;;;;;2.25;1.30;;;;;;;16.91;100.00;99516.98;1681043;83;21086;-68
2022/09/25 09:29:18;;;;;;;3.47;1.00;;;;;;;17.06;100.00;99511.06;1718832;82;21347;-70
2022/09/25 09:32:10;;;;;;;3.58;1.10;;;;;;;17.01;100.00;99496.07;1719234;81;21071;-68
2022/09/25 09:34:45;;;;;;;1.85;0.93;;;;;;;16.95;100.00;99500.11;1700479;82;21652;-66
2022/09/25 09:37:30;;;;;;;2.12;0.88;;;;;;;17.04;100.00;99502.30;1698301;82;21019;-70
2022/09/25 09:40:23;;;;;;;2.83;0.80;;;;;;;17.06;100.00;99500.63;1683901;83;21095;-65
2022/09/25 09:43:15;;;;;;;1.95;1.10;;;;;;;16.78;99.93;99506.37;1717816;81;21024;-71
2022/09/25 09:46:05;;;;;;;3.20;1.20;;;;;;;16.45;100.00;99502.30;1726785;81;21083;-73
2022/09/25 09:48:58;;;;;;;1.62;1.12;;;;;;;16.14;100.00;99500.94;1722445;81;21062;-70
2022/09/25 09:51:39;;;;;;;2.22;1.22;;;;;;;15.92;100.00;99505.87;1710406;81;21102;-72
2022/09/25 09:54:11;;;;;;;3.87;0.90;;;;;;;15.84;100.00;99506.61;1726767;82;21491;-71
2022/09/25 09:56:39;;;;;;;1.25;0.93;;;;;;;15.86;100.00;99509.06;1732100;81;21067;-71
2022/09/25 09:59:16;;;;;;;2.30;1.20;;;;;;;15.93;100.00;99506.69;1732931;81;20987;-71
2022/09/25 10:01:43;;;;;;;;;;;;;;;15.82;100.00;99500.64;1683197;82;21574;-69
2022/09/25 10:04:15;;;;;;;2.40;1.47;;;;;;;15.74;100.00;99492.33;1728939;82;20496;-69
2022/09/25 10:07:04;;;;;;;1.75;0.98;;;;;;;15.63;100.00;99495.88;1727895;82;21966;-69
2022/09/25 10:09:33;;;;;;;2.35;1.00;;;;;;;15.74;100.00;99508.23;1746135;81;21078;-72
2022/09/25 10:12:04;;;;;;;3.85;1.20;;;;;;;15.87;100.00;99501.87;1725464;81;21051;-72
2022/09/25 10:14:40;;;;;;;2.37;1.10;;;;;;;16.00;100.00;99497.45;1685771;83;21036;-69
2022/09/25 10:17:10;;;;;;;3.20;1.42;;;;;;;16.16;100.00;99497.30;1726492;81;21034;-69
2022/09/25 10:19:54;;;;;;;2.00;1.07;;;;;;;16.34;100.00;99496.83;1731401;81;21345;-68
2022/09/25 10:22:25;;;;;;;1.60;1.05;;;;;;;16.48;100.00;99498.92;1716392;81;21557;-69
2022/09/25 10:25:00;;;;;;;2.45;1.50;;;;;;;16.48;100.00;99496.73;1699225;81;21098;-71
2022/09/25 10:27:36;;;;;;;2.25;1.00;;;;;;;16.54;100.00;99485.88;1715776;81;21341;-67
2022/09/25 10:30:11;;;;;;;1.70;1.12;;;;;;;16.59;100.00;99481.06;1719683;81;21040;-72
2022/09/25 10:32:58;;;;;;;2.30;1.30;;;;;;;16.64;100.00;99485.62;1726778;82;21075;-69
2022/09/25 10:35:30;;;;;;;2.15;1.17;;;;;;;16.58;100.00;99480.02;1725483;81;21017;-71
2022/09/25 10:37:59;;;;;;;2.90;1.22;;;;;;;16.37;100.00;99473.66;1716971;81;21042;-68
2022/09/25 10:40:33;;;;;;;2.47;1.20;;;;;;;16.23;100.00;99478.99;1717421;81;21031;-67
2022/09/25 10:43:23;;;;;;;2.33;1.02;;;;;;;16.13;100.00;99477.89;1696236;83;21003;-68
2022/09/25 10:45:53;;;;;;;3.22;1.40;;;;;;;16.01;100.00;99480.42;1695163;83;21066;-69
2022/09/25 10:51:16;;;;;;;3.90;1.20;;;;;;;15.79;100.00;99466.95;1708826;81;21054;-69
2022/09/25 10:53:45;;;;;;;2.58;1.30;;;;;;;15.66;100.00;99484.27;1692993;82;21517;-69
2022/09/25 10:56:16;;;;;;;2.40;1.45;;;;;;;15.55;100.00;99472.50;1716595;82;21095;-69
2022/09/25 10:58:53;;;;;;;4.15;1.30;;;;;;;15.49;100.00;99471.80;1712169;82;21056;-71
2022/09/25 11:01:22;;;;;;;2.50;1.47;;;;;;;15.36;100.00;99472.63;1720029;82;21044;-67
2022/09/25 11:03:54;;;;;;;2.77;1.22;;;;;;;15.32;100.00;99469.69;1711393;82;20983;-70
2022/09/25 11:06:26;;;;;;;3.33;1.30;;;;;;;15.32;100.00;99462.83;1673244;84;21047;-69
2022/09/25 11:09:15;;;;;;;1.98;1.37;;;;;;;15.36;100.00;99467.95;1677816;84;20990;-69
2022/09/25 11:11:42;;;;;;;2.33;1.40;;;;;;;15.38;100.00;99463.52;1719782;82;21036;-70
2022/09/25 11:14:31;;;;;;;3.60;1.52;;;;;;;15.34;100.00;99460.58;1716085;82;21475;-70
2022/09/25 11:17:04;;;;;;;2.10;1.30;;;;;;;15.31;100.00;99452.98;1716091;82;20984;-70
2022/09/25 11:19:34;;;;;;;2.20;1.30;;;;;;;15.39;100.00;99461.03;1713396;82;20972;-70
2022/09/25 11:22:15;;;;;;;2.37;1.30;;;;;;;15.43;100.00;99457.37;1712968;82;21027;-70
2022/09/25 11:25:24;;;;;;;2.35;1.55;;;;;;;15.49;100.00;99449.03;1710323;82;20991;-70
2022/09/25 11:28:04;;;;;;;4.40;1.50;;;;;;;15.41;100.00;99449.99;1711182;82;21027;-70
2022/09/25 11:30:35;;;;;;;2.42;1.30;;;;;;;15.37;100.00;99453.69;1710577;82;21043;-70
2022/09/25 11:33:10;;;;;;;2.65;1.40;;;;;;;15.45;100.00;99455.11;1715954;83;20980;-70
2022/09/25 11:35:59;;;;;;;3.27;1.27;;;;;;;15.56;100.00;99451.59;1716295;82;21562;-68
2022/09/25 11:41:58;;;;;;;6.17;1.40;;;;;;;15.76;100.00;99444.27;1722132;81;21014;-70
2022/09/25 11:44:56;;;;;;;6.95;1.50;;;;;;;15.75;100.00;99444.56;1724125;83;21010;-69
2022/09/25 11:47:35;;;;;;;2.98;1.50;;;;;;;15.65;100.00;99449.75;1723699;82;20979;-70
2022/09/25 11:50:02;;;;;;;4.42;1.42;;;;;;;15.66;100.00;99450.56;1698428;82;21130;-71
2022/09/25 11:52:46;;;;;;;3.95;1.45;;;;;;;15.65;100.00;99445.63;1722189;81;20982;-70
2022/09/25 11:55:55;;;;;;;3.52;1.52;;;;;;;15.67;100.00;99445.30;1724582;82;21656;-70
2022/09/25 11:58:43;;;;;;;3.77;1.40;;;;;;;15.76;100.00;99444.81;1723771;82;21474;-69
2022/09/25 12:01:36;;;;;;;2.92;1.50;;;;;;;15.81;100.00;99444.67;1725482;81;21118;-70
2022/09/25 12:04:17;;;;;;;3.08;1.40;;;;;;;15.82;100.00;99447.67;1730146;83;20998;-68
2022/09/25 12:07:16;;;;;;;3.02;1.50;;;;;;;15.74;100.00;99445.11;1729458;81;21031;-70
2022/09/25 12:10:22;;;;;;;2.98;1.25;;;;;;;15.67;100.00;99448.05;1728856;82;20998;-72
2022/09/25 12:12:58;;;;;;;2.08;1.40;;;;;;;15.62;100.00;99452.30;1724661;81;20986;-72
2022/09/25 12:15:48;;;;;;;2.52;1.42;;;;;;;15.60;100.00;99450.41;1724321;82;21062;-71
2022/09/25 12:18:32;;;;;;;2.77;1.32;;;;;;;15.60;100.00;99437.52;1708145;82;21054;-73
2022/09/25 12:21:24;;;;;;;2.95;1.35;;;;;;;15.64;100.00;99444.56;1726444;81;21093;-72